KAIO

Atlantic Municipal Airport

Atlantic, Iowa, USA
METAR KAIO 231415Z AUTO 30006KT 6SM BR CLR M04/M04 A3023 RMK AO2
Observed Flight Rules
Feb-23 @ 14:15 UTC (23 minutes ago) Visual Flight Rules
Wind Visibility Clouds Conditions
300° at 6 knots 6 miles
  • Clear skies
  • Mist
Temperatures Readings
Current -4°C / 25°F
Dewpoint -4°C / 25°F
Humidity 100%
Altimeter 30.23" Hg
Pressure 1024 hPa
Elevation 360
METAR KAIO 231415Z AUTO 30006KT 6SM BR CLR M04/M04 A3023 RMK AO2
Observed Flight Rules
Feb-23 @ 14:15 UTC
(23 minutes ago)
VFR
Wind Visibility
300° at 6 knots 6 miles
Clouds
  • Clear skies
Conditions
  • Mist
Temperature Dewpoint
-4°C / 25°F -4°C / 25°F
Humidity Altimeter Pressure
100% 30.23" Hg 1024 hPa